sensor_id;sensor_type;location;lat;lon;timestamp;P1;durP1;ratioP1;P2;durP2;ratioP2
46006;SDS011;31738;50.188;8.524;2023-04-24T00:00:50;3.85;;;1.95;;
46006;SDS011;31738;50.188;8.524;2023-04-24T00:03:17;5.10;;;2.25;;
46006;SDS011;31738;50.188;8.524;2023-04-24T00:05:46;4.90;;;1.92;;
46006;SDS011;31738;50.188;8.524;2023-04-24T00:08:17;3.58;;;1.85;;
46006;SDS011;31738;50.188;8.524;2023-04-24T00:10:43;3.60;;;1.88;;
46006;SDS011;31738;50.188;8.524;2023-04-24T00:13:09;3.03;;;1.85;;
46006;SDS011;31738;50.188;8.524;2023-04-24T00:15:38;4.30;;;2.13;;
46006;SDS011;31738;50.188;8.524;2023-04-24T00:21:17;3.70;;;2.05;;
46006;SDS011;31738;50.188;8.524;2023-04-24T00:23:43;4.63;;;1.52;;
46006;SDS011;31738;50.188;8.524;2023-04-24T00:26:09;4.95;;;1.60;;
46006;SDS011;31738;50.188;8.524;2023-04-24T00:28:35;2.05;;;1.77;;
46006;SDS011;31738;50.188;8.524;2023-04-24T00:31:08;4.13;;;1.67;;
46006;SDS011;31738;50.188;8.524;2023-04-24T00:33:34;3.45;;;1.75;;
46006;SDS011;31738;50.188;8.524;2023-04-24T00:36:00;5.03;;;2.00;;
46006;SDS011;31738;50.188;8.524;2023-04-24T00:38:26;5.22;;;2.28;;
46006;SDS011;31738;50.188;8.524;2023-04-24T00:40:51;3.88;;;1.85;;
46006;SDS011;31738;50.188;8.524;2023-04-24T00:43:19;5.35;;;1.90;;
46006;SDS011;31738;50.188;8.524;2023-04-24T00:45:44;4.72;;;1.88;;
46006;SDS011;31738;50.188;8.524;2023-04-24T00:48:10;6.38;;;2.00;;
46006;SDS011;31738;50.188;8.524;2023-04-24T00:50:36;3.95;;;1.85;;
46006;SDS011;31738;50.188;8.524;2023-04-24T00:53:03;2.70;;;1.50;;
46006;SDS011;31738;50.188;8.524;2023-04-24T00:55:29;2.45;;;1.50;;
46006;SDS011;31738;50.188;8.524;2023-04-24T00:57:55;6.88;;;1.85;;
46006;SDS011;31738;50.188;8.524;2023-04-24T01:00:21;5.60;;;1.70;;
46006;SDS011;31738;50.188;8.524;2023-04-24T01:02:47;2.20;;;1.67;;
46006;SDS011;31738;50.188;8.524;2023-04-24T01:05:15;4.60;;;1.40;;
46006;SDS011;31738;50.188;8.524;2023-04-24T01:07:43;2.47;;;1.42;;
46006;SDS011;31738;50.188;8.524;2023-04-24T01:10:11;5.47;;;1.80;;
46006;SDS011;31738;50.188;8.524;2023-04-24T01:12:38;3.38;;;1.50;;
46006;SDS011;31738;50.188;8.524;2023-04-24T01:15:04;3.80;;;1.42;;
46006;SDS011;31738;50.188;8.524;2023-04-24T01:17:31;3.33;;;1.40;;
46006;SDS011;31738;50.188;8.524;2023-04-24T01:19:58;3.35;;;1.60;;
46006;SDS011;31738;50.188;8.524;2023-04-24T01:22:25;4.18;;;1.70;;
46006;SDS011;31738;50.188;8.524;2023-04-24T01:24:51;3.97;;;1.70;;
46006;SDS011;31738;50.188;8.524;2023-04-24T01:27:18;5.63;;;2.03;;
46006;SDS011;31738;50.188;8.524;2023-04-24T01:29:45;4.95;;;1.67;;
46006;SDS011;31738;50.188;8.524;2023-04-24T01:32:13;4.57;;;1.50;;
46006;SDS011;31738;50.188;8.524;2023-04-24T01:34:39;7.68;;;1.90;;
46006;SDS011;31738;50.188;8.524;2023-04-24T01:37:05;3.63;;;1.70;;
46006;SDS011;31738;50.188;8.524;2023-04-24T01:39:31;3.90;;;1.95;;
46006;SDS011;31738;50.188;8.524;2023-04-24T01:42:02;3.78;;;1.90;;
46006;SDS011;31738;50.188;8.524;2023-04-24T01:44:28;2.88;;;1.90;;
46006;SDS011;31738;50.188;8.524;2023-04-24T01:47:00;5.68;;;1.98;;
46006;SDS011;31738;50.188;8.524;2023-04-24T01:49:29;5.53;;;2.13;;
46006;SDS011;31738;50.188;8.524;2023-04-24T01:51:54;6.68;;;1.92;;
46006;SDS011;31738;50.188;8.524;2023-04-24T01:54:23;4.85;;;2.03;;
46006;SDS011;31738;50.188;8.524;2023-04-24T01:56:49;5.25;;;1.90;;
46006;SDS011;31738;50.188;8.524;2023-04-24T01:59:15;5.68;;;2.65;;
46006;SDS011;31738;50.188;8.524;2023-04-24T02:01:42;4.65;;;1.92;;
46006;SDS011;31738;50.188;8.524;2023-04-24T02:04:08;3.53;;;1.70;;
46006;SDS011;31738;50.188;8.524;2023-04-24T02:06:37;3.22;;;1.90;;
46006;SDS011;31738;50.188;8.524;2023-04-24T02:09:02;5.53;;;2.00;;
46006;SDS011;31738;50.188;8.524;2023-04-24T02:11:33;5.18;;;2.28;;
46006;SDS011;31738;50.188;8.524;2023-04-24T02:14:11;4.07;;;2.25;;
46006;SDS011;31738;50.188;8.524;2023-04-24T02:16:39;3.75;;;2.10;;
46006;SDS011;31738;50.188;8.524;2023-04-24T02:19:04;12.75;;;2.47;;
46006;SDS011;31738;50.188;8.524;2023-04-24T02:21:30;5.32;;;2.10;;
46006;SDS011;31738;50.188;8.524;2023-04-24T02:24:00;4.93;;;2.47;;
46006;SDS011;31738;50.188;8.524;2023-04-24T02:26:26;3.67;;;2.10;;
46006;SDS011;31738;50.188;8.524;2023-04-24T02:28:51;5.80;;;2.25;;
46006;SDS011;31738;50.188;8.524;2023-04-24T02:31:19;6.97;;;2.60;;
46006;SDS011;31738;50.188;8.524;2023-04-24T02:33:49;6.60;;;2.40;;
46006;SDS011;31738;50.188;8.524;2023-04-24T02:36:14;6.30;;;2.60;;
46006;SDS011;31738;50.188;8.524;2023-04-24T02:38:40;5.30;;;2.33;;
46006;SDS011;31738;50.188;8.524;2023-04-24T02:41:09;2.55;;;1.92;;
46006;SDS011;31738;50.188;8.524;2023-04-24T02:43:34;3.92;;;2.35;;
46006;SDS011;31738;50.188;8.524;2023-04-24T02:46:03;4.55;;;2.30;;
46006;SDS011;31738;50.188;8.524;2023-04-24T02:48:32;3.60;;;2.10;;
46006;SDS011;31738;50.188;8.524;2023-04-24T02:50:58;6.85;;;2.40;;
46006;SDS011;31738;50.188;8.524;2023-04-24T02:53:24;3.17;;;2.20;;
46006;SDS011;31738;50.188;8.524;2023-04-24T02:55:52;6.53;;;2.50;;
46006;SDS011;31738;50.188;8.524;2023-04-24T03:01:58;3.33;;;2.30;;
46006;SDS011;31738;50.188;8.524;2023-04-24T03:04:23;6.35;;;2.30;;
46006;SDS011;31738;50.188;8.524;2023-04-24T03:06:49;3.95;;;2.17;;
46006;SDS011;31738;50.188;8.524;2023-04-24T03:09:19;3.28;;;2.30;;
46006;SDS011;31738;50.188;8.524;2023-04-24T03:11:48;2.60;;;1.95;;
46006;SDS011;31738;50.188;8.524;2023-04-24T03:14:14;4.30;;;2.10;;
46006;SDS011;31738;50.188;8.524;2023-04-24T03:16:41;5.05;;;1.80;;
46006;SDS011;31738;50.188;8.524;2023-04-24T03:19:06;2.30;;;1.77;;
46006;SDS011;31738;50.188;8.524;2023-04-24T03:21:38;4.35;;;1.88;;
46006;SDS011;31738;50.188;8.524;2023-04-24T03:24:09;9.57;;;1.73;;
46006;SDS011;31738;50.188;8.524;2023-04-24T03:26:39;2.53;;;1.70;;
46006;SDS011;31738;50.188;8.524;2023-04-24T03:29:50;3.00;;;1.50;;
46006;SDS011;31738;50.188;8.524;2023-04-24T03:32:28;4.80;;;1.90;;
46006;SDS011;31738;50.188;8.524;2023-04-24T03:34:53;1.83;;;1.30;;
46006;SDS011;31738;50.188;8.524;2023-04-24T03:37:19;2.55;;;1.60;;
46006;SDS011;31738;50.188;8.524;2023-04-24T03:39:53;3.13;;;1.97;;
46006;SDS011;31738;50.188;8.524;2023-04-24T03:42:23;5.35;;;1.52;;
46006;SDS011;31738;50.188;8.524;2023-04-24T03:44:53;3.50;;;1.75;;
46006;SDS011;31738;50.188;8.524;2023-04-24T03:47:22;3.78;;;1.83;;
46006;SDS011;31738;50.188;8.524;2023-04-24T03:49:49;2.50;;;1.77;;
46006;SDS011;31738;50.188;8.524;2023-04-24T03:52:18;4.50;;;1.67;;
46006;SDS011;31738;50.188;8.524;2023-04-24T03:54:43;4.88;;;1.83;;
46006;SDS011;31738;50.188;8.524;2023-04-24T04:00:25;4.30;;;1.70;;
46006;SDS011;31738;50.188;8.524;2023-04-24T04:03:06;3.33;;;1.38;;
46006;SDS011;31738;50.188;8.524;2023-04-24T04:05:32;2.72;;;1.77;;
46006;SDS011;31738;50.188;8.524;2023-04-24T04:07:58;3.33;;;1.80;;
46006;SDS011;31738;50.188;8.524;2023-04-24T04:10:23;4.55;;;1.85;;
46006;SDS011;31738;50.188;8.524;2023-04-24T04:12:55;4.47;;;1.63;;
46006;SDS011;31738;50.188;8.524;2023-04-24T04:15:21;2.80;;;1.75;;
46006;SDS011;31738;50.188;8.524;2023-04-24T04:17:48;3.17;;;1.83;;
46006;SDS011;31738;50.188;8.524;2023-04-24T04:20:14;2.83;;;1.80;;
46006;SDS011;31738;50.188;8.524;2023-04-24T04:22:40;3.78;;;1.80;;
46006;SDS011;31738;50.188;8.524;2023-04-24T04:25:11;4.03;;;1.55;;
46006;SDS011;31738;50.188;8.524;2023-04-24T04:27:39;3.67;;;1.95;;
46006;SDS011;31738;50.188;8.524;2023-04-24T04:30:09;2.75;;;1.70;;
46006;SDS011;31738;50.188;8.524;2023-04-24T04:32:48;4.30;;;1.88;;
46006;SDS011;31738;50.188;8.524;2023-04-24T04:35:29;3.42;;;1.83;;
46006;SDS011;31738;50.188;8.524;2023-04-24T04:37:55;2.65;;;1.77;;
46006;SDS011;31738;50.188;8.524;2023-04-24T04:40:31;2.60;;;1.85;;
46006;SDS011;31738;50.188;8.524;2023-04-24T04:43:29;3.05;;;1.73;;
46006;SDS011;31738;50.188;8.524;2023-04-24T04:46:39;2.15;;;1.70;;
46006;SDS011;31738;50.188;8.524;2023-04-24T04:49:32;3.22;;;1.67;;
46006;SDS011;31738;50.188;8.524;2023-04-24T04:51:59;3.72;;;1.90;;
46006;SDS011;31738;50.188;8.524;2023-04-24T04:54:28;2.42;;;1.73;;
46006;SDS011;31738;50.188;8.524;2023-04-24T04:57:11;3.05;;;1.60;;
46006;SDS011;31738;50.188;8.524;2023-04-24T04:59:54;3.53;;;1.52;;
46006;SDS011;31738;50.188;8.524;2023-04-24T05:02:52;3.42;;;1.70;;
46006;SDS011;31738;50.188;8.524;2023-04-24T05:05:18;2.35;;;1.73;;
46006;SDS011;31738;50.188;8.524;2023-04-24T05:07:44;2.25;;;1.70;;
46006;SDS011;31738;50.188;8.524;2023-04-24T05:10:10;3.50;;;1.58;;
46006;SDS011;31738;50.188;8.524;2023-04-24T05:12:36;4.20;;;1.85;;
46006;SDS011;31738;50.188;8.524;2023-04-24T05:15:03;2.50;;;1.80;;
46006;SDS011;31738;50.188;8.524;2023-04-24T05:17:29;2.15;;;1.80;;
46006;SDS011;31738;50.188;8.524;2023-04-24T05:19:56;3.40;;;1.92;;
46006;SDS011;31738;50.188;8.524;2023-04-24T05:22:22;5.00;;;1.98;;
46006;SDS011;31738;50.188;8.524;2023-04-24T05:24:56;1.98;;;1.60;;
46006;SDS011;31738;50.188;8.524;2023-04-24T05:27:46;3.63;;;2.47;;
46006;SDS011;31738;50.188;8.524;2023-04-24T05:30:14;4.25;;;2.20;;
46006;SDS011;31738;50.188;8.524;2023-04-24T05:32:40;3.35;;;2.17;;
46006;SDS011;31738;50.188;8.524;2023-04-24T05:35:06;2.80;;;2.03;;
46006;SDS011;31738;50.188;8.524;2023-04-24T05:37:33;3.53;;;1.83;;
46006;SDS011;31738;50.188;8.524;2023-04-24T05:39:59;3.35;;;1.90;;
46006;SDS011;31738;50.188;8.524;2023-04-24T05:42:24;2.70;;;1.90;;
46006;SDS011;31738;50.188;8.524;2023-04-24T05:44:50;4.55;;;2.22;;
46006;SDS011;31738;50.188;8.524;2023-04-24T05:47:16;5.18;;;2.20;;
46006;SDS011;31738;50.188;8.524;2023-04-24T05:49:42;2.72;;;2.45;;
46006;SDS011;31738;50.188;8.524;2023-04-24T05:52:08;8.30;;;2.42;;
46006;SDS011;31738;50.188;8.524;2023-04-24T05:54:42;4.32;;;2.53;;
46006;SDS011;31738;50.188;8.524;2023-04-24T05:57:10;3.65;;;2.65;;
46006;SDS011;31738;50.188;8.524;2023-04-24T05:59:57;6.18;;;2.70;;
46006;SDS011;31738;50.188;8.524;2023-04-24T06:02:27;4.43;;;3.08;;
46006;SDS011;31738;50.188;8.524;2023-04-24T06:04:58;9.15;;;3.00;;
46006;SDS011;31738;50.188;8.524;2023-04-24T06:07:25;5.93;;;3.20;;
46006;SDS011;31738;50.188;8.524;2023-04-24T06:10:00;8.43;;;3.13;;
46006;SDS011;31738;50.188;8.524;2023-04-24T06:12:47;3.55;;;2.80;;
46006;SDS011;31738;50.188;8.524;2023-04-24T06:15:32;4.25;;;2.83;;
46006;SDS011;31738;50.188;8.524;2023-04-24T06:18:06;7.07;;;3.63;;
46006;SDS011;31738;50.188;8.524;2023-04-24T06:20:32;6.80;;;4.50;;
46006;SDS011;31738;50.188;8.524;2023-04-24T06:22:58;6.85;;;4.20;;
46006;SDS011;31738;50.188;8.524;2023-04-24T06:25:25;5.93;;;4.13;;
46006;SDS011;31738;50.188;8.524;2023-04-24T06:27:52;9.32;;;4.30;;
46006;SDS011;31738;50.188;8.524;2023-04-24T06:30:17;5.95;;;4.00;;
46006;SDS011;31738;50.188;8.524;2023-04-24T06:32:43;7.50;;;3.88;;
46006;SDS011;31738;50.188;8.524;2023-04-24T06:35:09;6.90;;;4.88;;
46006;SDS011;31738;50.188;8.524;2023-04-24T06:37:35;8.32;;;4.43;;
46006;SDS011;31738;50.188;8.524;2023-04-24T06:40:01;9.38;;;4.55;;
46006;SDS011;31738;50.188;8.524;2023-04-24T06:42:27;7.82;;;4.47;;
46006;SDS011;31738;50.188;8.524;2023-04-24T06:44:53;6.32;;;4.78;;
46006;SDS011;31738;50.188;8.524;2023-04-24T06:47:18;7.15;;;4.72;;
46006;SDS011;31738;50.188;8.524;2023-04-24T06:49:44;9.00;;;5.25;;
46006;SDS011;31738;50.188;8.524;2023-04-24T06:52:09;6.90;;;4.72;;
46006;SDS011;31738;50.188;8.524;2023-04-24T06:54:35;6.97;;;4.93;;
46006;SDS011;31738;50.188;8.524;2023-04-24T06:57:00;8.27;;;4.93;;
46006;SDS011;31738;50.188;8.524;2023-04-24T06:59:27;6.07;;;4.38;;
46006;SDS011;31738;50.188;8.524;2023-04-24T07:01:53;7.28;;;4.20;;
46006;SDS011;31738;50.188;8.524;2023-04-24T07:04:18;6.90;;;4.93;;
46006;SDS011;31738;50.188;8.524;2023-04-24T07:06:45;7.07;;;4.30;;
46006;SDS011;31738;50.188;8.524;2023-04-24T07:09:11;8.15;;;4.60;;
46006;SDS011;31738;50.188;8.524;2023-04-24T07:11:38;8.13;;;4.05;;
46006;SDS011;31738;50.188;8.524;2023-04-24T07:14:06;7.20;;;4.25;;
46006;SDS011;31738;50.188;8.524;2023-04-24T07:16:31;6.90;;;3.85;;
46006;SDS011;31738;50.188;8.524;2023-04-24T07:18:57;8.15;;;4.45;;
46006;SDS011;31738;50.188;8.524;2023-04-24T07:21:22;5.93;;;3.47;;
46006;SDS011;31738;50.188;8.524;2023-04-24T07:23:48;7.28;;;3.88;;
46006;SDS011;31738;50.188;8.524;2023-04-24T07:26:13;4.53;;;3.33;;
46006;SDS011;31738;50.188;8.524;2023-04-24T07:28:40;6.32;;;3.17;;
46006;SDS011;31738;50.188;8.524;2023-04-24T07:31:06;4.80;;;3.47;;
46006;SDS011;31738;50.188;8.524;2023-04-24T07:33:31;5.45;;;3.45;;
46006;SDS011;31738;50.188;8.524;2023-04-24T07:35:57;4.32;;;2.90;;
46006;SDS011;31738;50.188;8.524;2023-04-24T07:38:23;4.40;;;3.22;;
46006;SDS011;31738;50.188;8.524;2023-04-24T07:40:51;5.60;;;3.25;;
46006;SDS011;31738;50.188;8.524;2023-04-24T07:43:16;4.00;;;3.03;;
46006;SDS011;31738;50.188;8.524;2023-04-24T07:45:42;6.30;;;2.90;;
46006;SDS011;31738;50.188;8.524;2023-04-24T07:48:08;4.57;;;2.83;;
46006;SDS011;31738;50.188;8.524;2023-04-24T07:50:34;5.70;;;2.95;;
46006;SDS011;31738;50.188;8.524;2023-04-24T07:53:01;4.75;;;3.60;;
46006;SDS011;31738;50.188;8.524;2023-04-24T07:55:26;4.80;;;3.05;;
46006;SDS011;31738;50.188;8.524;2023-04-24T07:57:52;6.85;;;3.75;;
46006;SDS011;31738;50.188;8.524;2023-04-24T08:00:17;6.50;;;3.45;;
46006;SDS011;31738;50.188;8.524;2023-04-24T08:02:43;6.93;;;3.40;;
46006;SDS011;31738;50.188;8.524;2023-04-24T08:05:09;4.95;;;3.25;;
46006;SDS011;31738;50.188;8.524;2023-04-24T08:07:35;4.20;;;3.00;;
46006;SDS011;31738;50.188;8.524;2023-04-24T08:12:57;3.58;;;3.10;;
46006;SDS011;31738;50.188;8.524;2023-04-24T08:15:22;4.35;;;2.97;;
46006;SDS011;31738;50.188;8.524;2023-04-24T08:17:48;4.13;;;2.95;;
46006;SDS011;31738;50.188;8.524;2023-04-24T08:20:13;4.72;;;3.15;;
46006;SDS011;31738;50.188;8.524;2023-04-24T08:22:39;5.25;;;3.00;;
46006;SDS011;31738;50.188;8.524;2023-04-24T08:25:06;2.95;;;2.53;;
46006;SDS011;31738;50.188;8.524;2023-04-24T08:27:31;5.95;;;2.83;;
46006;SDS011;31738;50.188;8.524;2023-04-24T08:29:57;4.50;;;3.05;;
46006;SDS011;31738;50.188;8.524;2023-04-24T08:32:24;4.10;;;2.88;;
46006;SDS011;31738;50.188;8.524;2023-04-24T08:34:49;5.90;;;3.03;;
46006;SDS011;31738;50.188;8.524;2023-04-24T08:37:15;7.05;;;3.13;;
46006;SDS011;31738;50.188;8.524;2023-04-24T08:39:40;6.97;;;3.30;;
46006;SDS011;31738;50.188;8.524;2023-04-24T08:42:07;5.70;;;3.15;;
46006;SDS011;31738;50.188;8.524;2023-04-24T08:44:34;4.30;;;3.00;;
46006;SDS011;31738;50.188;8.524;2023-04-24T08:47:04;5.43;;;3.15;;
46006;SDS011;31738;50.188;8.524;2023-04-24T08:49:30;5.63;;;3.58;;
46006;SDS011;31738;50.188;8.524;2023-04-24T08:51:56;5.93;;;3.10;;
46006;SDS011;31738;50.188;8.524;2023-04-24T08:54:22;4.45;;;2.90;;
46006;SDS011;31738;50.188;8.524;2023-04-24T08:56:47;6.10;;;2.78;;
46006;SDS011;31738;50.188;8.524;2023-04-24T08:59:14;5.03;;;3.15;;
46006;SDS011;31738;50.188;8.524;2023-04-24T09:01:40;4.78;;;2.47;;
46006;SDS011;31738;50.188;8.524;2023-04-24T09:04:07;4.13;;;2.88;;
46006;SDS011;31738;50.188;8.524;2023-04-24T09:06:37;7.18;;;3.65;;
46006;SDS011;31738;50.188;8.524;2023-04-24T09:09:03;5.63;;;2.58;;
46006;SDS011;31738;50.188;8.524;2023-04-24T09:11:30;6.05;;;2.88;;
46006;SDS011;31738;50.188;8.524;2023-04-24T09:13:57;5.13;;;3.00;;
46006;SDS011;31738;50.188;8.524;2023-04-24T09:16:24;5.40;;;3.05;;
46006;SDS011;31738;50.188;8.524;2023-04-24T09:18:51;3.75;;;3.20;;
46006;SDS011;31738;50.188;8.524;2023-04-24T09:21:17;4.47;;;3.05;;
46006;SDS011;31738;50.188;8.524;2023-04-24T09:23:42;3.88;;;3.15;;
46006;SDS011;31738;50.188;8.524;2023-04-24T09:26:08;6.95;;;3.33;;
46006;SDS011;31738;50.188;8.524;2023-04-24T09:28:37;3.95;;;3.20;;
46006;SDS011;31738;50.188;8.524;2023-04-24T09:31:08;5.90;;;3.17;;
46006;SDS011;31738;50.188;8.524;2023-04-24T09:33:39;4.63;;;2.88;;
46006;SDS011;31738;50.188;8.524;2023-04-24T09:36:05;3.88;;;2.78;;
46006;SDS011;31738;50.188;8.524;2023-04-24T09:38:32;4.40;;;2.75;;
46006;SDS011;31738;50.188;8.524;2023-04-24T09:41:01;3.97;;;2.60;;
46006;SDS011;31738;50.188;8.524;2023-04-24T09:43:30;4.50;;;2.78;;
46006;SDS011;31738;50.188;8.524;2023-04-24T09:45:56;4.03;;;2.85;;
46006;SDS011;31738;50.188;8.524;2023-04-24T09:48:33;5.18;;;2.80;;
46006;SDS011;31738;50.188;8.524;2023-04-24T09:51:00;3.88;;;2.60;;
46006;SDS011;31738;50.188;8.524;2023-04-24T09:53:29;3.63;;;2.80;;
46006;SDS011;31738;50.188;8.524;2023-04-24T09:55:55;4.93;;;2.33;;
46006;SDS011;31738;50.188;8.524;2023-04-24T09:58:24;5.68;;;2.80;;
46006;SDS011;31738;50.188;8.524;2023-04-24T10:00:54;4.68;;;2.85;;
46006;SDS011;31738;50.188;8.524;2023-04-24T10:03:20;5.45;;;2.50;;
46006;SDS011;31738;50.188;8.524;2023-04-24T10:05:46;2.80;;;2.20;;
46006;SDS011;31738;50.188;8.524;2023-04-24T10:08:12;2.80;;;2.17;;
46006;SDS011;31738;50.188;8.524;2023-04-24T10:10:39;2.50;;;2.10;;
46006;SDS011;31738;50.188;8.524;2023-04-24T10:13:07;3.80;;;2.33;;
46006;SDS011;31738;50.188;8.524;2023-04-24T10:15:34;5.35;;;2.40;;
46006;SDS011;31738;50.188;8.524;2023-04-24T10:18:00;4.90;;;2.63;;
46006;SDS011;31738;50.188;8.524;2023-04-24T10:20:27;3.50;;;2.47;;
46006;SDS011;31738;50.188;8.524;2023-04-24T10:22:57;4.22;;;2.70;;
46006;SDS011;31738;50.188;8.524;2023-04-24T10:25:25;4.80;;;2.72;;
46006;SDS011;31738;50.188;8.524;2023-04-24T10:27:52;3.63;;;3.05;;
46006;SDS011;31738;50.188;8.524;2023-04-24T10:30:18;3.75;;;3.00;;
46006;SDS011;31738;50.188;8.524;2023-04-24T10:32:45;3.72;;;2.63;;
46006;SDS011;31738;50.188;8.524;2023-04-24T10:35:14;3.70;;;2.50;;
46006;SDS011;31738;50.188;8.524;2023-04-24T10:37:44;4.22;;;2.80;;
46006;SDS011;31738;50.188;8.524;2023-04-24T10:40:27;5.88;;;3.65;;
46006;SDS011;31738;50.188;8.524;2023-04-24T10:42:55;5.03;;;3.28;;
46006;SDS011;31738;50.188;8.524;2023-04-24T10:45:22;4.45;;;3.03;;
46006;SDS011;31738;50.188;8.524;2023-04-24T10:47:52;3.50;;;2.78;;
46006;SDS011;31738;50.188;8.524;2023-04-24T10:50:29;3.58;;;2.60;;
46006;SDS011;31738;50.188;8.524;2023-04-24T10:53:12;3.72;;;2.45;;
46006;SDS011;31738;50.188;8.524;2023-04-24T10:55:50;2.28;;;2.00;;
46006;SDS011;31738;50.188;8.524;2023-04-24T10:58:17;2.42;;;2.08;;
46006;SDS011;31738;50.188;8.524;2023-04-24T11:00:55;2.33;;;1.83;;
46006;SDS011;31738;50.188;8.524;2023-04-24T11:03:29;3.35;;;1.88;;
46006;SDS011;31738;50.188;8.524;2023-04-24T11:06:03;2.72;;;1.52;;
46006;SDS011;31738;50.188;8.524;2023-04-24T11:08:37;1.73;;;1.50;;
46006;SDS011;31738;50.188;8.524;2023-04-24T11:11:13;1.92;;;1.60;;
46006;SDS011;31738;50.188;8.524;2023-04-24T11:19:09;2.53;;;1.85;;
46006;SDS011;31738;50.188;8.524;2023-04-24T11:29:40;3.15;;;1.90;;
46006;SDS011;31738;50.188;8.524;2023-04-24T11:35:02;2.83;;;2.00;;
46006;SDS011;31738;50.188;8.524;2023-04-24T11:37:39;3.97;;;1.95;;
46006;SDS011;31738;50.188;8.524;2023-04-24T11:40:06;1.85;;;1.58;;
46006;SDS011;31738;50.188;8.524;2023-04-24T11:42:34;4.65;;;1.98;;
46006;SDS011;31738;50.188;8.524;2023-04-24T11:45:00;3.15;;;1.88;;
46006;SDS011;31738;50.188;8.524;2023-04-24T11:47:30;3.25;;;1.88;;
46006;SDS011;31738;50.188;8.524;2023-04-24T11:49:58;2.10;;;1.90;;
46006;SDS011;31738;50.188;8.524;2023-04-24T11:52:25;2.40;;;1.65;;
46006;SDS011;31738;50.188;8.524;2023-04-24T11:54:51;4.60;;;2.10;;
46006;SDS011;31738;50.188;8.524;2023-04-24T11:57:19;3.20;;;1.88;;
46006;SDS011;31738;50.188;8.524;2023-04-24T11:59:46;3.70;;;1.85;;
46006;SDS011;31738;50.188;8.524;2023-04-24T12:02:21;2.50;;;1.90;;
46006;SDS011;31738;50.188;8.524;2023-04-24T12:04:48;6.18;;;3.15;;
46006;SDS011;31738;50.188;8.524;2023-04-24T12:07:13;3.70;;;2.63;;
46006;SDS011;31738;50.188;8.524;2023-04-24T12:09:46;3.10;;;2.40;;
46006;SDS011;31738;50.188;8.524;2023-04-24T12:12:13;4.97;;;2.83;;
46006;SDS011;31738;50.188;8.524;2023-04-24T12:14:43;3.38;;;2.15;;
46006;SDS011;31738;50.188;8.524;2023-04-24T12:17:12;3.15;;;2.03;;
46006;SDS011;31738;50.188;8.524;2023-04-24T12:19:44;3.25;;;2.28;;
46006;SDS011;31738;50.188;8.524;2023-04-24T12:22:10;2.55;;;1.90;;
46006;SDS011;31738;50.188;8.524;2023-04-24T12:24:54;5.68;;;2.63;;
46006;SDS011;31738;50.188;8.524;2023-04-24T12:27:22;3.97;;;2.20;;
46006;SDS011;31738;50.188;8.524;2023-04-24T12:29:51;3.08;;;2.03;;
46006;SDS011;31738;50.188;8.524;2023-04-24T12:32:18;3.75;;;3.03;;
46006;SDS011;31738;50.188;8.524;2023-04-24T12:34:44;4.28;;;2.83;;
46006;SDS011;31738;50.188;8.524;2023-04-24T12:37:10;5.32;;;2.72;;
46006;SDS011;31738;50.188;8.524;2023-04-24T12:39:36;3.50;;;2.15;;
46006;SDS011;31738;50.188;8.524;2023-04-24T12:42:02;5.50;;;3.15;;
46006;SDS011;31738;50.188;8.524;2023-04-24T12:44:31;5.65;;;2.90;;
46006;SDS011;31738;50.188;8.524;2023-04-24T12:46:59;5.43;;;3.40;;
46006;SDS011;31738;50.188;8.524;2023-04-24T12:49:26;6.28;;;3.58;;
46006;SDS011;31738;50.188;8.524;2023-04-24T12:51:52;5.38;;;3.38;;
46006;SDS011;31738;50.188;8.524;2023-04-24T12:54:18;3.85;;;2.88;;
46006;SDS011;31738;50.188;8.524;2023-04-24T12:56:43;5.32;;;3.35;;
46006;SDS011;31738;50.188;8.524;2023-04-24T12:59:08;4.93;;;3.30;;
46006;SDS011;31738;50.188;8.524;2023-04-24T13:01:34;5.65;;;3.38;;
46006;SDS011;31738;50.188;8.524;2023-04-24T13:03:59;5.20;;;3.50;;
46006;SDS011;31738;50.188;8.524;2023-04-24T13:06:25;7.35;;;3.35;;
46006;SDS011;31738;50.188;8.524;2023-04-24T13:08:51;5.35;;;3.50;;
46006;SDS011;31738;50.188;8.524;2023-04-24T13:11:17;4.75;;;4.00;;
46006;SDS011;31738;50.188;8.524;2023-04-24T13:13:43;6.32;;;3.60;;
46006;SDS011;31738;50.188;8.524;2023-04-24T13:16:08;5.28;;;3.25;;
46006;SDS011;31738;50.188;8.524;2023-04-24T13:18:34;5.93;;;3.80;;
46006;SDS011;31738;50.188;8.524;2023-04-24T13:20:59;4.97;;;3.58;;
46006;SDS011;31738;50.188;8.524;2023-04-24T13:23:25;11.23;;;4.15;;
46006;SDS011;31738;50.188;8.524;2023-04-24T13:25:50;6.75;;;4.20;;
46006;SDS011;31738;50.188;8.524;2023-04-24T13:28:15;7.50;;;3.95;;
46006;SDS011;31738;50.188;8.524;2023-04-24T13:30:41;8.65;;;4.20;;
46006;SDS011;31738;50.188;8.524;2023-04-24T13:33:07;6.20;;;3.50;;
46006;SDS011;31738;50.188;8.524;2023-04-24T13:35:32;6.93;;;3.80;;
46006;SDS011;31738;50.188;8.524;2023-04-24T13:37:58;4.10;;;3.17;;
46006;SDS011;31738;50.188;8.524;2023-04-24T13:40:23;9.18;;;4.00;;
46006;SDS011;31738;50.188;8.524;2023-04-24T13:42:49;7.70;;;4.00;;
46006;SDS011;31738;50.188;8.524;2023-04-24T13:45:14;6.13;;;4.00;;
46006;SDS011;31738;50.188;8.524;2023-04-24T13:47:40;5.97;;;3.80;;
46006;SDS011;31738;50.188;8.524;2023-04-24T13:50:07;8.13;;;4.22;;
46006;SDS011;31738;50.188;8.524;2023-04-24T13:52:33;7.90;;;4.05;;
46006;SDS011;31738;50.188;8.524;2023-04-24T13:54:59;8.60;;;4.57;;
46006;SDS011;31738;50.188;8.524;2023-04-24T13:57:24;8.88;;;5.10;;
46006;SDS011;31738;50.188;8.524;2023-04-24T13:59:50;8.60;;;4.93;;
46006;SDS011;31738;50.188;8.524;2023-04-24T14:02:15;7.28;;;4.53;;
46006;SDS011;31738;50.188;8.524;2023-04-24T14:04:41;8.05;;;4.55;;
46006;SDS011;31738;50.188;8.524;2023-04-24T14:07:06;7.30;;;4.50;;
46006;SDS011;31738;50.188;8.524;2023-04-24T14:09:33;7.32;;;4.40;;
46006;SDS011;31738;50.188;8.524;2023-04-24T14:11:58;6.85;;;4.72;;
46006;SDS011;31738;50.188;8.524;2023-04-24T14:14:26;7.35;;;4.10;;
46006;SDS011;31738;50.188;8.524;2023-04-24T14:16:51;10.38;;;4.88;;
46006;SDS011;31738;50.188;8.524;2023-04-24T14:19:17;9.57;;;4.38;;
46006;SDS011;31738;50.188;8.524;2023-04-24T14:21:42;9.77;;;4.75;;
46006;SDS011;31738;50.188;8.524;2023-04-24T14:24:08;9.50;;;4.43;;
46006;SDS011;31738;50.188;8.524;2023-04-24T14:26:34;7.22;;;4.25;;
46006;SDS011;31738;50.188;8.524;2023-04-24T14:28:59;9.02;;;4.03;;
46006;SDS011;31738;50.188;8.524;2023-04-24T14:31:25;6.60;;;4.05;;
46006;SDS011;31738;50.188;8.524;2023-04-24T14:33:51;6.93;;;3.75;;
46006;SDS011;31738;50.188;8.524;2023-04-24T14:36:16;6.90;;;3.75;;
46006;SDS011;31738;50.188;8.524;2023-04-24T14:38:42;8.07;;;4.28;;
46006;SDS011;31738;50.188;8.524;2023-04-24T14:41:07;8.00;;;3.80;;
46006;SDS011;31738;50.188;8.524;2023-04-24T14:43:35;8.65;;;3.92;;
46006;SDS011;31738;50.188;8.524;2023-04-24T14:46:01;7.50;;;3.58;;
46006;SDS011;31738;50.188;8.524;2023-04-24T14:48:27;9.82;;;4.07;;
46006;SDS011;31738;50.188;8.524;2023-04-24T14:50:52;7.95;;;4.00;;
46006;SDS011;31738;50.188;8.524;2023-04-24T14:53:18;6.70;;;4.05;;
46006;SDS011;31738;50.188;8.524;2023-04-24T14:55:44;6.63;;;3.72;;
46006;SDS011;31738;50.188;8.524;2023-04-24T14:58:09;7.70;;;3.65;;
46006;SDS011;31738;50.188;8.524;2023-04-24T15:00:35;9.88;;;3.80;;
46006;SDS011;31738;50.188;8.524;2023-04-24T15:03:00;9.07;;;3.90;;
46006;SDS011;31738;50.188;8.524;2023-04-24T15:05:26;9.23;;;3.63;;
46006;SDS011;31738;50.188;8.524;2023-04-24T15:07:52;7.28;;;3.63;;
46006;SDS011;31738;50.188;8.524;2023-04-24T15:10:17;5.43;;;3.65;;
46006;SDS011;31738;50.188;8.524;2023-04-24T15:12:43;5.65;;;3.47;;
46006;SDS011;31738;50.188;8.524;2023-04-24T15:15:09;5.97;;;3.70;;
46006;SDS011;31738;50.188;8.524;2023-04-24T15:17:34;7.75;;;3.90;;
46006;SDS011;31738;50.188;8.524;2023-04-24T15:20:00;6.45;;;3.80;;
46006;SDS011;31738;50.188;8.524;2023-04-24T15:22:26;6.32;;;3.30;;